Time;durP1;ratioP1;P1;durP2;ratioP2;P2;SDS_P1;SDS_P2;PMS_P1;PMS_P2;Temp;Humidity;BMP_temperature;BMP_pressure;BME280_temperature;BME280_humidity;BME280_pressure;Samples;Min_cycle;Max_cycle;Signal;HPM_P1;HPM_P2
2023/06/13 00:01:48;;;;;;;23.85;9.32;;;;;;;;;;5013423;28;20152;-73
2023/06/13 00:04:21;;;;;;;18.17;8.57;;;;;;;;;;5014609;28;20041;-73
2023/06/13 00:06:54;;;;;;;23.40;9.52;;;;;;;;;;5013540;28;20494;-73
2023/06/13 00:09:20;;;;;;;22.02;9.40;;;;;;;;;;5013031;28;20107;-73
2023/06/13 00:11:46;;;;;;;26.80;9.75;;;;;;;;;;5012733;28;20473;-73
2023/06/13 00:14:12;;;;;;;19.92;9.82;;;;;;;;;;5014352;28;20045;-73
2023/06/13 00:16:38;;;;;;;19.73;9.15;;;;;;;;;;5012930;28;20425;-73
2023/06/13 00:19:04;;;;;;;27.77;9.75;;;;;;;;;;5044119;28;20478;-73
2023/06/13 00:21:32;;;;;;;31.33;9.38;;;;;;;;;;5012487;28;20378;-73
2023/06/13 00:23:57;;;;;;;29.80;9.48;;;;;;;;;;5033134;28;20104;-73
2023/06/13 00:26:23;;;;;;;20.98;8.98;;;;;;;;;;5012789;28;20037;-74
2023/06/13 00:28:48;;;;;;;25.98;8.93;;;;;;;;;;5014255;28;20042;-74
2023/06/13 00:31:13;;;;;;;27.10;9.18;;;;;;;;;;5014024;28;20125;-73
2023/06/13 00:33:43;;;;;;;22.23;8.88;;;;;;;;;;5014084;28;20072;-73
2023/06/13 00:36:09;;;;;;;26.83;9.02;;;;;;;;;;5014213;28;20056;-73
2023/06/13 00:38:34;;;;;;;16.20;8.23;;;;;;;;;;5013958;28;20041;-73
2023/06/13 00:41:00;;;;;;;19.08;8.13;;;;;;;;;;5013751;28;20034;-73
2023/06/13 00:43:27;;;;;;;22.08;8.27;;;;;;;;;;5014061;28;20130;-73
2023/06/13 00:45:53;;;;;;;19.33;8.77;;;;;;;;;;5011595;28;20037;-73
2023/06/13 00:48:19;;;;;;;23.83;9.18;;;;;;;;;;5013955;28;20088;-73
2023/06/13 00:50:45;;;;;;;24.63;9.15;;;;;;;;;;5012692;28;20037;-73
2023/06/13 00:53:19;;;;;;;42.20;9.88;;;;;;;;;;5012441;28;20041;-74
2023/06/13 00:55:46;;;;;;;21.98;8.18;;;;;;;;;;5013801;28;20034;-73
2023/06/13 00:58:12;;;;;;;54.08;9.35;;;;;;;;;;5013813;28;20042;-73
2023/06/13 01:00:38;;;;;;;81.07;11.88;;;;;;;;;;5012533;28;20030;-73
2023/06/13 01:03:07;;;;;;;27.05;9.13;;;;;;;;;;5012142;28;20393;-73
2023/06/13 01:05:36;;;;;;;30.70;9.23;;;;;;;;;;5012341;28;20038;-73
2023/06/13 01:08:06;;;;;;;17.30;8.27;;;;;;;;;;5013716;28;20029;-73
2023/06/13 01:10:33;;;;;;;25.73;9.02;;;;;;;;;;5012508;28;20034;-74
2023/06/13 01:13:09;;;;;;;31.08;9.63;;;;;;;;;;5012459;28;21013;-73
2023/06/13 01:15:38;;;;;;;29.30;9.10;;;;;;;;;;5012286;28;20084;-73
2023/06/13 01:18:05;;;;;;;21.52;8.75;;;;;;;;;;5012394;28;20052;-73
2023/06/13 01:20:34;;;;;;;25.52;9.20;;;;;;;;;;5013397;28;20037;-73
2023/06/13 01:23:18;;;;;;;73.63;10.15;;;;;;;;;;5012238;28;20478;-73
2023/06/13 01:25:59;;;;;;;;;;;;;;;;;;5010585;28;20046;-73
2023/06/13 01:28:24;;;;;;;16.45;7.43;;;;;;;;;;5003499;28;20008;-73
2023/06/13 01:30:51;;;;;;;27.48;8.38;;;;;;;;;;5012137;28;20113;-73
2023/06/13 01:33:17;;;;;;;22.35;8.30;;;;;;;;;;5013374;28;20084;-73
2023/06/13 01:35:43;;;;;;;25.58;8.63;;;;;;;;;;5013539;28;20037;-73
2023/06/13 01:38:09;;;;;;;19.70;8.63;;;;;;;;;;5016343;28;20038;-73
2023/06/13 01:40:34;;;;;;;21.13;8.15;;;;;;;;;;5007778;28;20038;-73
2023/06/13 01:42:59;;;;;;;21.75;8.02;;;;;;;;;;5017497;28;20130;-73
2023/06/13 01:45:25;;;;;;;19.60;9.10;;;;;;;;;;5016487;28;20230;-73
2023/06/13 01:48:06;;;;;;;18.65;7.88;;;;;;;;;;5016124;28;20025;-73
2023/06/13 01:50:42;;;;;;;26.13;8.20;;;;;;;;;;5012462;28;20038;-73
2023/06/13 01:53:31;;;;;;;96.72;10.73;;;;;;;;;;5015923;28;20026;-74
2023/06/13 01:56:01;;;;;;;57.28;9.23;;;;;;;;;;5016084;28;20038;-74
2023/06/13 01:58:35;;;;;;;22.85;8.02;;;;;;;;;;5015746;28;20057;-74
2023/06/13 02:01:04;;;;;;;;;;;;;;;;;;5015976;28;20092;-73
2023/06/13 02:03:31;;;;;;;17.60;6.35;;;;;;;;;;5016923;28;19948;-73
2023/06/13 02:05:56;;;;;;;17.35;7.07;;;;;;;;;;5017642;28;20048;-74
2023/06/13 02:08:22;;;;;;;66.18;9.15;;;;;;;;;;5016914;28;20057;-74
2023/06/13 02:10:47;;;;;;;19.95;7.82;;;;;;;;;;5016847;28;20549;-73
2023/06/13 02:13:12;;;;;;;17.08;7.53;;;;;;;;;;5014270;28;20045;-73
2023/06/13 02:15:38;;;;;;;23.15;7.95;;;;;;;;;;5016621;28;20069;-73
2023/06/13 02:18:03;;;;;;;19.77;7.88;;;;;;;;;;5016646;28;20449;-74
2023/06/13 02:20:28;;;;;;;21.75;7.53;;;;;;;;;;5016973;28;20141;-73
2023/06/13 02:22:54;;;;;;;24.88;8.57;;;;;;;;;;5014507;28;20038;-74
2023/06/13 02:25:20;;;;;;;16.77;7.43;;;;;;;;;;5015229;28;20474;-73
2023/06/13 02:27:45;;;;;;;15.85;7.25;;;;;;;;;;5015126;28;20045;-73
2023/06/13 02:30:11;;;;;;;19.63;8.07;;;;;;;;;;5016111;28;20042;-74
2023/06/13 02:32:42;;;;;;;21.20;7.45;;;;;;;;;;5015553;28;20037;-74
2023/06/13 02:35:08;;;;;;;22.85;7.57;;;;;;;;;;5015519;28;20543;-74
2023/06/13 02:37:33;;;;;;;20.13;7.05;;;;;;;;;;5016394;28;20124;-73
2023/06/13 02:39:59;;;;;;;18.17;7.57;;;;;;;;;;5015055;28;20041;-73
2023/06/13 02:42:26;;;;;;;19.85;7.22;;;;;;;;;;5016184;28;20161;-73
2023/06/13 02:44:52;;;;;;;23.75;7.05;;;;;;;;;;5016483;28;20053;-73
2023/06/13 02:47:19;;;;;;;17.08;7.60;;;;;;;;;;5014740;28;20037;-73
2023/06/13 02:49:44;;;;;;;24.13;7.53;;;;;;;;;;5016246;28;20045;-73
2023/06/13 02:52:09;;;;;;;16.25;7.78;;;;;;;;;;5014747;28;20398;-74
2023/06/13 02:54:35;;;;;;;27.92;7.45;;;;;;;;;;5015818;28;20034;-73
2023/06/13 02:57:00;;;;;;;23.75;7.47;;;;;;;;;;5015908;28;20474;-73
2023/06/13 02:59:26;;;;;;;13.93;6.85;;;;;;;;;;5015370;28;20068;-74
2023/06/13 03:01:52;;;;;;;22.15;6.40;;;;;;;;;;5015960;28;20136;-74
2023/06/13 03:04:18;;;;;;;17.73;6.97;;;;;;;;;;5015781;28;20045;-73
2023/06/13 03:06:44;;;;;;;14.23;6.30;;;;;;;;;;5014584;28;20405;-74
2023/06/13 03:09:10;;;;;;;26.45;7.35;;;;;;;;;;5015695;28;20030;-74
2023/06/13 03:11:36;;;;;;;20.98;7.25;;;;;;;;;;5015574;28;20045;-74
2023/06/13 03:14:02;;;;;;;19.42;6.78;;;;;;;;;;5015777;28;20048;-74
2023/06/13 03:16:28;;;;;;;10.50;6.03;;;;;;;;;;5015764;28;20044;-73
2023/06/13 03:18:54;;;;;;;21.85;6.78;;;;;;;;;;5015511;28;20084;-74
2023/06/13 03:21:20;;;;;;;12.93;6.85;;;;;;;;;;5014334;28;20046;-74
2023/06/13 03:23:46;;;;;;;14.45;6.97;;;;;;;;;;5015403;28;20547;-73
2023/06/13 03:26:11;;;;;;;17.42;7.13;;;;;;;;;;5014008;28;20049;-73
2023/06/13 03:28:37;;;;;;;15.98;7.18;;;;;;;;;;5015205;28;20088;-73
2023/06/13 03:31:02;;;;;;;27.98;8.45;;;;;;;;;;5015438;28;20054;-73
2023/06/13 03:33:28;;;;;;;20.70;7.43;;;;;;;;;;5013965;28;20116;-73
2023/06/13 03:36:00;;;;;;;24.48;7.50;;;;;;;;;;5015411;28;20048;-73
2023/06/13 03:38:27;;;;;;;14.60;6.55;;;;;;;;;;5005499;28;20092;-73
2023/06/13 03:40:52;;;;;;;15.02;6.32;;;;;;;;;;5014049;28;20034;-73
2023/06/13 03:43:18;;;;;;;14.45;7.07;;;;;;;;;;5014902;28;20050;-73
2023/06/13 03:45:43;;;;;;;14.00;6.82;;;;;;;;;;5014916;28;20034;-73
2023/06/13 03:48:08;;;;;;;16.92;6.97;;;;;;;;;;5015076;28;20042;-73
2023/06/13 03:50:34;;;;;;;18.15;7.07;;;;;;;;;;5014904;28;20045;-73
2023/06/13 03:52:59;;;;;;;13.90;7.07;;;;;;;;;;5013830;28;20113;-73
2023/06/13 03:55:25;;;;;;;17.77;6.93;;;;;;;;;;5014729;28;20045;-73
2023/06/13 03:57:50;;;;;;;20.42;6.47;;;;;;;;;;5013055;28;20050;-73
2023/06/13 04:00:15;;;;;;;91.75;9.45;;;;;;;;;;5014895;28;20064;-73
2023/06/13 04:02:41;;;;;;;15.35;6.38;;;;;;;;;;5014519;28;20045;-73
2023/06/13 04:05:07;;;;;;;15.60;6.03;;;;;;;;;;5013520;28;20041;-74
2023/06/13 04:07:33;;;;;;;12.48;6.57;;;;;;;;;;5014546;28;20030;-74
2023/06/13 04:10:02;;;;;;;16.20;6.60;;;;;;;;;;5013552;28;20478;-73
2023/06/13 04:12:31;;;;;;;21.70;7.28;;;;;;;;;;5001445;28;20486;-74
2023/06/13 04:14:57;;;;;;;12.07;6.03;;;;;;;;;;5013322;28;20030;-74
2023/06/13 04:17:22;;;;;;;10.52;5.90;;;;;;;;;;5014372;28;20505;-74
2023/06/13 04:19:50;;;;;;;18.30;6.97;;;;;;;;;;5012965;28;20465;-73
2023/06/13 04:22:19;;;;;;;15.15;6.93;;;;;;;;;;5014482;28;20038;-73
2023/06/13 04:24:45;;;;;;;14.98;6.28;;;;;;;;;;5014272;28;20065;-73
2023/06/13 04:27:13;;;;;;;14.40;6.55;;;;;;;;;;5012838;28;20065;-74
2023/06/13 04:29:40;;;;;;;25.92;7.20;;;;;;;;;;5012936;28;20041;-74
2023/06/13 04:32:07;;;;;;;21.58;6.40;;;;;;;;;;5012020;28;20050;-74
2023/06/13 04:34:33;;;;;;;17.52;5.88;;;;;;;;;;5013972;28;20041;-74
2023/06/13 04:37:03;;;;;;;16.27;5.65;;;;;;;;;;5014408;28;20061;-74
2023/06/13 04:39:28;;;;;;;12.82;6.07;;;;;;;;;;5013279;28;20053;-74
2023/06/13 04:41:55;;;;;;;11.30;5.40;;;;;;;;;;5014020;28;20099;-74
2023/06/13 04:44:28;;;;;;;13.98;5.88;;;;;;;;;;5012313;28;20034;-74
2023/06/13 04:47:01;;;;;;;14.48;6.13;;;;;;;;;;5014072;28;20037;-74
2023/06/13 04:49:27;;;;;;;11.95;6.05;;;;;;;;;;5013745;28;20042;-74
2023/06/13 04:51:54;;;;;;;12.13;5.18;;;;;;;;;;5012747;28;20512;-74
2023/06/13 04:54:21;;;;;;;15.18;5.38;;;;;;;;;;5013548;28;20109;-74
2023/06/13 04:56:47;;;;;;;86.25;10.75;;;;;;;;;;5013855;28;20033;-74
2023/06/13 04:59:13;;;;;;;41.05;6.55;;;;;;;;;;5013267;28;20072;-74
2023/06/13 05:01:38;;;;;;;19.77;5.13;;;;;;;;;;5012324;28;20025;-74
2023/06/13 05:04:04;;;;;;;24.48;5.72;;;;;;;;;;5013816;28;20030;-74
2023/06/13 05:06:29;;;;;;;13.80;4.63;;;;;;;;;;5013427;28;20390;-74
2023/06/13 05:08:55;;;;;;;25.30;5.30;;;;;;;;;;5013318;28;20474;-74
2023/06/13 05:11:20;;;;;;;170.18;13.77;;;;;;;;;;5012652;28;20074;-74
2023/06/13 05:13:45;;;;;;;50.47;5.60;;;;;;;;;;5013486;28;20113;-74
2023/06/13 05:16:11;;;;;;;9.90;4.88;;;;;;;;;;5013566;28;20034;-74
2023/06/13 05:18:40;;;;;;;30.88;5.05;;;;;;;;;;5015016;28;20041;-74
2023/06/13 05:21:05;;;;;;;10.25;4.50;;;;;;;;;;5011138;28;20048;-74
2023/06/13 05:23:31;;;;;;;5.75;4.25;;;;;;;;;;5013274;28;20025;-73
2023/06/13 05:25:56;;;;;;;7.05;4.25;;;;;;;;;;5013534;28;20129;-74
2023/06/13 05:28:22;;;;;;;5.75;4.00;;;;;;;;;;5012153;28;20413;-74
2023/06/13 05:30:48;;;;;;;16.90;4.60;;;;;;;;;;5013705;28;20034;-74
2023/06/13 05:33:16;;;;;;;7.57;3.60;;;;;;;;;;5013123;28;20622;-74
2023/06/13 05:35:42;;;;;;;7.00;3.83;;;;;;;;;;5013122;28;20505;-74
2023/06/13 05:38:11;;;;;;;5.72;3.78;;;;;;;;;;5013434;28;20164;-74
2023/06/13 05:40:36;;;;;;;6.50;3.65;;;;;;;;;;5013360;28;20108;-74
2023/06/13 05:43:03;;;;;;;6.80;3.78;;;;;;;;;;5013310;28;20038;-74
2023/06/13 05:45:28;;;;;;;5.20;3.72;;;;;;;;;;5013142;28;20041;-74
2023/06/13 05:47:53;;;;;;;7.38;3.60;;;;;;;;;;5013401;28;20038;-74
2023/06/13 05:50:19;;;;;;;4.40;3.42;;;;;;;;;;5013580;28;20400;-74
2023/06/13 05:52:44;;;;;;;4.43;3.35;;;;;;;;;;5013108;28;20466;-74
2023/06/13 05:55:09;;;;;;;6.47;3.35;;;;;;;;;;5013236;28;20045;-74
2023/06/13 05:57:42;;;;;;;6.15;3.63;;;;;;;;;;5013080;28;20050;-74
2023/06/13 06:00:12;;;;;;;9.15;3.45;;;;;;;;;;5011653;28;20033;-75
2023/06/13 06:02:37;;;;;;;11.45;4.10;;;;;;;;;;5012935;28;20116;-74
2023/06/13 06:05:03;;;;;;;7.15;3.35;;;;;;;;;;5013277;28;20546;-74
2023/06/13 06:07:28;;;;;;;8.18;3.85;;;;;;;;;;5012207;28;20038;-74
2023/06/13 06:09:54;;;;;;;8.80;3.83;;;;;;;;;;5013082;28;20034;-74
2023/06/13 06:12:19;;;;;;;8.13;4.35;;;;;;;;;;5012910;28;20046;-75
2023/06/13 06:14:45;;;;;;;7.18;3.78;;;;;;;;;;5012815;28;20029;-74
2023/06/13 06:17:10;;;;;;;7.80;4.68;;;;;;;;;;5013228;28;20126;-75
2023/06/13 06:19:35;;;;;;;6.03;4.30;;;;;;;;;;5013175;28;20072;-74
2023/06/13 06:22:00;;;;;;;10.82;5.00;;;;;;;;;;5014893;28;20058;-75
2023/06/13 06:24:26;;;;;;;12.05;4.85;;;;;;;;;;5016430;28;20038;-74
2023/06/13 06:26:51;;;;;;;9.32;5.07;;;;;;;;;;5016457;28;20046;-75
2023/06/13 06:29:16;;;;;;;8.68;5.07;;;;;;;;;;5016151;28;20030;-75
2023/06/13 06:31:42;;;;;;;8.77;4.68;;;;;;;;;;5016457;28;20034;-75
2023/06/13 06:34:07;;;;;;;9.20;4.88;;;;;;;;;;5016477;28;20040;-75
2023/06/13 06:36:32;;;;;;;12.93;4.90;;;;;;;;;;5016665;28;20036;-74
2023/06/13 06:38:58;;;;;;;7.88;4.35;;;;;;;;;;5016348;28;20044;-74
2023/06/13 06:41:23;;;;;;;9.93;4.88;;;;;;;;;;5016119;28;20390;-74
2023/06/13 06:43:49;;;;;;;5.95;4.18;;;;;;;;;;5015925;28;20436;-74
2023/06/13 06:46:14;;;;;;;7.30;4.55;;;;;;;;;;5015988;28;20064;-74
2023/06/13 06:48:39;;;;;;;8.35;4.18;;;;;;;;;;5016255;28;20041;-74
2023/06/13 06:51:05;;;;;;;9.02;4.18;;;;;;;;;;5016017;28;20029;-74
2023/06/13 06:53:30;;;;;;;8.63;3.97;;;;;;;;;;5016131;28;20180;-74
2023/06/13 06:55:55;;;;;;;6.40;4.60;;;;;;;;;;5015423;28;20486;-74
2023/06/13 06:58:21;;;;;;;6.93;4.32;;;;;;;;;;5015573;28;20064;-74
2023/06/13 07:00:46;;;;;;;10.00;4.15;;;;;;;;;;5014187;28;20132;-74
2023/06/13 07:03:11;;;;;;;6.30;4.25;;;;;;;;;;5015014;28;20041;-74
2023/06/13 07:05:37;;;;;;;8.80;4.22;;;;;;;;;;5014323;28;20030;-74
2023/06/13 07:08:02;;;;;;;5.60;4.00;;;;;;;;;;5015687;28;20041;-74
2023/06/13 07:10:28;;;;;;;6.82;3.92;;;;;;;;;;5014528;28;20042;-74
2023/06/13 07:12:53;;;;;;;5.32;4.05;;;;;;;;;;5015364;28;20037;-74
2023/06/13 07:15:18;;;;;;;5.30;3.78;;;;;;;;;;5015074;28;20474;-74
2023/06/13 07:17:44;;;;;;;6.97;4.07;;;;;;;;;;5015383;28;20045;-74
2023/06/13 07:20:11;;;;;;;4.90;3.70;;;;;;;;;;5015600;28;20084;-74
2023/06/13 07:22:36;;;;;;;4.88;3.58;;;;;;;;;;5015331;28;20042;-74
2023/06/13 07:25:02;;;;;;;4.82;3.30;;;;;;;;;;5012869;28;20091;-73
2023/06/13 07:27:27;;;;;;;4.57;3.15;;;;;;;;;;5014294;28;20037;-74
2023/06/13 07:29:52;;;;;;;6.00;3.95;;;;;;;;;;5015148;28;20042;-74
2023/06/13 07:32:18;;;;;;;4.90;3.78;;;;;;;;;;5015283;28;20057;-74
2023/06/13 07:34:43;;;;;;;6.45;3.50;;;;;;;;;;5013080;28;20026;-74
2023/06/13 07:37:10;;;;;;;6.80;3.70;;;;;;;;;;5014757;28;20185;-74
2023/06/13 07:39:35;;;;;;;6.32;3.90;;;;;;;;;;5014965;28;20049;-74
2023/06/13 07:42:00;;;;;;;6.45;3.25;;;;;;;;;;5009596;28;20037;-74
2023/06/13 07:44:26;;;;;;;5.40;3.58;;;;;;;;;;5014992;28;20405;-74
2023/06/13 07:46:51;;;;;;;5.45;3.78;;;;;;;;;;5014618;28;20037;-73
2023/06/13 07:49:16;;;;;;;8.18;3.60;;;;;;;;;;5012344;28;20030;-74
2023/06/13 07:51:42;;;;;;;6.65;3.80;;;;;;;;;;5006964;28;20049;-74
2023/06/13 07:54:08;;;;;;;7.28;3.30;;;;;;;;;;5012477;28;20042;-74
2023/06/13 07:56:33;;;;;;;5.72;3.90;;;;;;;;;;5012364;28;20080;-74
2023/06/13 07:58:58;;;;;;;9.63;3.95;;;;;;;;;;5012938;28;20048;-73
2023/06/13 08:01:24;;;;;;;10.80;3.85;;;;;;;;;;5009490;28;20042;-74
2023/06/13 08:03:49;;;;;;;11.65;3.85;;;;;;;;;;5011017;28;20466;-74
2023/06/13 08:06:15;;;;;;;5.18;3.78;;;;;;;;;;5012151;28;20498;-74
2023/06/13 08:08:40;;;;;;;7.10;3.78;;;;;;;;;;5012324;28;20552;-74
2023/06/13 08:11:06;;;;;;;5.70;3.58;;;;;;;;;;5012456;28;20029;-74
2023/06/13 08:13:31;;;;;;;5.13;3.90;;;;;;;;;;4996781;28;20038;-73
2023/06/13 08:15:56;;;;;;;8.13;3.80;;;;;;;;;;5008042;28;20077;-74
2023/06/13 08:18:22;;;;;;;9.77;3.53;;;;;;;;;;5008529;28;20034;-73
2023/06/13 08:20:50;;;;;;;5.40;3.50;;;;;;;;;;5008341;28;20375;-74
2023/06/13 08:23:17;;;;;;;6.68;3.70;;;;;;;;;;5009474;28;20038;-73
2023/06/13 08:25:43;;;;;;;6.72;3.80;;;;;;;;;;5009926;28;20095;-74
2023/06/13 08:28:08;;;;;;;5.22;3.70;;;;;;;;;;5008093;28;20390;-73
2023/06/13 08:30:34;;;;;;;6.03;3.53;;;;;;;;;;5012063;28;20042;-73
2023/06/13 08:33:02;;;;;;;9.30;3.70;;;;;;;;;;5008607;28;20038;-74
2023/06/13 08:35:27;;;;;;;5.03;3.50;;;;;;;;;;5008905;28;20038;-73
2023/06/13 08:37:53;;;;;;;8.77;3.45;;;;;;;;;;5009006;28;20038;-73
2023/06/13 08:40:19;;;;;;;8.13;3.58;;;;;;;;;;5001688;28;20477;-74
2023/06/13 08:42:46;;;;;;;7.43;3.45;;;;;;;;;;5005076;28;20141;-74
2023/06/13 08:45:11;;;;;;;9.65;3.67;;;;;;;;;;4993220;28;20092;-74
2023/06/13 08:47:38;;;;;;;8.75;3.45;;;;;;;;;;5008017;28;20033;-73
2023/06/13 08:50:04;;;;;;;6.07;3.50;;;;;;;;;;5007028;28;20034;-73
2023/06/13 08:52:39;;;;;;;5.97;3.33;;;;;;;;;;5007920;28;20049;-73
2023/06/13 08:55:15;;;;;;;4.53;3.33;;;;;;;;;;5007879;28;20454;-73
2023/06/13 08:57:41;;;;;;;5.35;3.22;;;;;;;;;;5010066;28;20053;-73
2023/06/13 09:00:13;;;;;;;8.65;3.40;;;;;;;;;;5009979;28;20049;-73
2023/06/13 09:02:43;;;;;;;8.43;3.28;;;;;;;;;;5007996;28;20042;-72
2023/06/13 09:05:13;;;;;;;6.10;3.15;;;;;;;;;;5008541;28;20120;-73
2023/06/13 09:07:39;;;;;;;6.15;3.38;;;;;;;;;;5008296;28;20375;-73
2023/06/13 09:10:06;;;;;;;5.38;3.22;;;;;;;;;;5009407;28;20121;-73
2023/06/13 09:12:31;;;;;;;6.80;3.30;;;;;;;;;;5008943;28;20124;-73
2023/06/13 09:14:57;;;;;;;6.40;3.38;;;;;;;;;;5010045;28;20108;-72
2023/06/13 09:17:22;;;;;;;5.63;3.63;;;;;;;;;;5007861;28;20041;-73
2023/06/13 09:19:48;;;;;;;5.82;3.72;;;;;;;;;;5008563;28;20037;-72
2023/06/13 09:22:16;;;;;;;6.15;3.35;;;;;;;;;;5010390;28;20091;-72
2023/06/13 09:24:42;;;;;;;4.63;3.63;;;;;;;;;;5010383;28;20034;-72
2023/06/13 09:27:08;;;;;;;6.88;3.60;;;;;;;;;;5008460;28;20042;-72
2023/06/13 09:29:34;;;;;;;5.68;3.60;;;;;;;;;;5008278;28;20044;-73
2023/06/13 09:32:00;;;;;;;6.97;3.78;;;;;;;;;;5008510;28;20381;-72
2023/06/13 09:34:30;;;;;;;8.32;4.00;;;;;;;;;;5008305;28;20572;-72
2023/06/13 09:36:57;;;;;;;6.88;3.38;;;;;;;;;;5008400;28;20050;-72
2023/06/13 09:39:23;;;;;;;7.88;3.50;;;;;;;;;;5008032;28;20474;-72
2023/06/13 09:42:01;;;;;;;6.07;3.90;;;;;;;;;;5009669;28;20042;-72
2023/06/13 09:44:32;;;;;;;9.00;3.50;;;;;;;;;;4996764;28;20516;-73
2023/06/13 09:46:58;;;;;;;4.75;3.25;;;;;;;;;;4998500;28;20137;-72
2023/06/13 09:49:28;;;;;;;10.70;4.47;;;;;;;;;;5007411;28;20371;-73
2023/06/13 09:51:54;;;;;;;7.00;3.97;;;;;;;;;;5005737;28;20485;-72
2023/06/13 09:54:20;;;;;;;4.72;3.97;;;;;;;;;;5008591;28;20038;-72
2023/06/13 09:56:45;;;;;;;7.30;4.07;;;;;;;;;;5007938;28;20055;-73
2023/06/13 09:59:16;;;;;;;4.93;4.10;;;;;;;;;;5009958;28;20058;-72
2023/06/13 10:01:41;;;;;;;11.52;4.10;;;;;;;;;;5012666;28;20065;-72
2023/06/13 10:04:07;;;;;;;6.22;3.80;;;;;;;;;;5013411;28;20065;-72
2023/06/13 10:06:32;;;;;;;6.18;4.38;;;;;;;;;;5012506;28;20116;-72
2023/06/13 10:08:57;;;;;;;8.43;4.38;;;;;;;;;;5010620;28;20397;-72
2023/06/13 10:11:26;;;;;;;6.55;4.53;;;;;;;;;;5011801;28;20041;-73
2023/06/13 10:13:55;;;;;;;5.85;3.88;;;;;;;;;;5011908;28;20030;-73
2023/06/13 10:16:21;;;;;;;6.78;4.30;;;;;;;;;;5011809;28;20050;-72
2023/06/13 10:18:48;;;;;;;8.35;4.30;;;;;;;;;;5012165;28;20038;-73
2023/06/13 10:21:13;;;;;;;10.40;4.13;;;;;;;;;;5012579;28;20399;-72
2023/06/13 10:23:44;;;;;;;12.02;4.20;;;;;;;;;;5012899;28;20037;-72
2023/06/13 10:26:15;;;;;;;9.43;4.83;;;;;;;;;;5013111;28;20038;-72
2023/06/13 10:28:49;;;;;;;6.40;4.05;;;;;;;;;;5010888;28;20038;-72
2023/06/13 10:31:31;;;;;;;7.82;4.38;;;;;;;;;;5012132;28;20405;-72
2023/06/13 10:34:07;;;;;;;6.10;4.10;;;;;;;;;;5012801;28;20042;-72
2023/06/13 10:36:41;;;;;;;9.98;4.57;;;;;;;;;;5012420;28;20041;-72
2023/06/13 10:39:21;;;;;;;9.20;4.03;;;;;;;;;;5012428;28;20121;-72
2023/06/13 10:41:53;;;;;;;7.30;3.90;;;;;;;;;;5010899;28;20505;-72
2023/06/13 10:44:29;;;;;;;10.18;4.45;;;;;;;;;;5011185;28;20072;-72
2023/06/13 10:46:54;;;;;;;7.82;4.28;;;;;;;;;;5003542;28;20050;-72
2023/06/13 10:49:21;;;;;;;9.20;4.13;;;;;;;;;;5012218;28;20042;-72
2023/06/13 10:51:46;;;;;;;6.43;4.05;;;;;;;;;;5011949;28;20042;-72
2023/06/13 10:54:15;;;;;;;10.43;3.78;;;;;;;;;;5012189;28;20367;-72
2023/06/13 10:56:43;;;;;;;8.77;4.32;;;;;;;;;;5012361;28;20367;-72
2023/06/13 10:59:17;;;;;;;7.90;4.90;;;;;;;;;;5011126;28;20050;-72
2023/06/13 11:01:44;;;;;;;9.35;4.43;;;;;;;;;;5012438;28;20441;-71
2023/06/13 11:04:20;;;;;;;6.53;3.70;;;;;;;;;;5011261;28;20091;-72
2023/06/13 11:06:48;;;;;;;6.47;3.92;;;;;;;;;;5012565;28;20061;-72
2023/06/13 11:09:21;;;;;;;8.57;4.68;;;;;;;;;;5010089;28;20057;-72
2023/06/13 11:11:56;;;;;;;5.85;4.18;;;;;;;;;;5011406;28;20061;-71
2023/06/13 11:14:33;;;;;;;9.68;4.78;;;;;;;;;;5011424;28;20101;-72
2023/06/13 11:17:00;;;;;;;10.23;4.43;;;;;;;;;;5010569;28;20064;-72
2023/06/13 11:19:30;;;;;;;5.00;3.58;;;;;;;;;;5004179;28;20041;-72
2023/06/13 11:21:58;;;;;;;8.00;4.10;;;;;;;;;;5010721;28;20441;-72
2023/06/13 11:24:23;;;;;;;6.05;3.83;;;;;;;;;;5012150;28;20490;-72
2023/06/13 11:26:49;;;;;;;7.25;3.28;;;;;;;;;;5009133;28;20141;-72
2023/06/13 11:29:15;;;;;;;10.50;3.50;;;;;;;;;;5011037;28;20456;-72
2023/06/13 11:31:40;;;;;;;8.10;3.50;;;;;;;;;;4990083;28;20096;-71
2023/06/13 11:34:13;;;;;;;7.13;4.00;;;;;;;;;;5008128;28;20041;-71
2023/06/13 11:36:41;;;;;;;;;;;;;;;;;;4997155;28;20033;-72
2023/06/13 11:39:13;;;;;;;7.00;3.80;;;;;;;;;;5010171;28;19992;-72
2023/06/13 11:41:39;;;;;;;8.35;3.97;;;;;;;;;;4989639;28;20050;-71
2023/06/13 11:44:04;;;;;;;8.10;4.55;;;;;;;;;;5009163;28;20025;-71
2023/06/13 11:46:30;;;;;;;11.07;4.60;;;;;;;;;;5010478;28;20452;-72
2023/06/13 11:48:58;;;;;;;8.23;4.22;;;;;;;;;;5010488;28;20045;-72
2023/06/13 11:51:27;;;;;;;8.50;5.13;;;;;;;;;;5010006;28;20057;-72
2023/06/13 11:54:01;;;;;;;10.07;4.30;;;;;;;;;;5001031;28;20084;-72
2023/06/13 11:56:27;;;;;;;6.65;4.60;;;;;;;;;;5000718;28;20342;-72
2023/06/13 11:58:54;;;;;;;8.50;4.47;;;;;;;;;;5008135;28;20050;-72
2023/06/13 12:01:22;;;;;;;6.35;4.30;;;;;;;;;;5009990;28;20044;-72
2023/06/13 12:03:49;;;;;;;8.45;4.53;;;;;;;;;;5009833;28;20033;-71
2023/06/13 12:06:15;;;;;;;8.13;4.80;;;;;;;;;;5010283;28;20117;-72
2023/06/13 12:08:46;;;;;;;10.73;4.88;;;;;;;;;;5009113;28;20042;-71
2023/06/13 12:11:21;;;;;;;9.93;5.70;;;;;;;;;;5007347;28;20076;-72
2023/06/13 12:13:57;;;;;;;10.15;5.57;;;;;;;;;;5008966;28;20033;-72
2023/06/13 12:16:24;;;;;;;12.27;5.45;;;;;;;;;;5008883;28;20371;-72
2023/06/13 12:18:56;;;;;;;8.88;5.32;;;;;;;;;;5006138;28;20040;-71
2023/06/13 12:21:24;;;;;;;6.63;4.70;;;;;;;;;;5006473;28;20029;-72
2023/06/13 12:23:50;;;;;;;10.40;5.00;;;;;;;;;;5010382;28;20030;-72
2023/06/13 12:26:17;;;;;;;12.38;4.97;;;;;;;;;;5005397;28;20493;-72
2023/06/13 12:28:43;;;;;;;9.15;4.68;;;;;;;;;;5003661;28;20442;-72
2023/06/13 12:31:09;;;;;;;9.40;5.32;;;;;;;;;;5004687;28;20114;-72
2023/06/13 12:33:35;;;;;;;7.63;4.85;;;;;;;;;;5008937;28;20398;-72
2023/06/13 12:36:03;;;;;;;8.63;5.35;;;;;;;;;;5010286;28;20029;-72
2023/06/13 12:38:30;;;;;;;9.82;5.47;;;;;;;;;;5003176;28;20034;-72
2023/06/13 12:40:56;;;;;;;7.05;4.75;;;;;;;;;;5001305;28;20470;-72
2023/06/13 12:43:25;;;;;;;9.90;5.05;;;;;;;;;;5005558;28;20597;-72
2023/06/13 12:45:51;;;;;;;18.70;6.20;;;;;;;;;;5005101;28;20041;-72
2023/06/13 12:48:18;;;;;;;10.95;5.80;;;;;;;;;;5009151;28;20161;-72
2023/06/13 12:50:43;;;;;;;12.82;4.97;;;;;;;;;;5004298;28;20200;-72
2023/06/13 12:53:09;;;;;;;11.70;5.28;;;;;;;;;;5008338;28;20116;-72
2023/06/13 12:55:35;;;;;;;7.55;5.20;;;;;;;;;;5004670;28;20195;-72
2023/06/13 12:58:31;;;;;;;7.93;5.47;;;;;;;;;;5004719;28;20061;-72
2023/06/13 13:00:58;;;;;;;9.73;5.22;;;;;;;;;;5001609;28;20050;-72
2023/06/13 13:03:23;;;;;;;7.72;4.82;;;;;;;;;;5005895;28;20048;-72
2023/06/13 13:05:51;;;;;;;10.40;5.40;;;;;;;;;;5009778;28;20042;-72
2023/06/13 13:08:18;;;;;;;9.27;4.82;;;;;;;;;;5008490;28;20103;-72
2023/06/13 13:10:44;;;;;;;12.00;6.20;;;;;;;;;;5004915;28;20033;-72
2023/06/13 13:13:12;;;;;;;8.20;5.28;;;;;;;;;;4991267;28;20049;-72
2023/06/13 13:15:38;;;;;;;8.82;5.65;;;;;;;;;;5006526;28;20499;-72
2023/06/13 13:18:03;;;;;;;13.00;6.15;;;;;;;;;;5007564;28;20042;-72
2023/06/13 13:20:28;;;;;;;8.75;5.50;;;;;;;;;;5007665;28;20037;-72
2023/06/13 13:22:54;;;;;;;10.07;5.10;;;;;;;;;;5008586;28;20038;-71
2023/06/13 13:25:19;;;;;;;8.38;5.38;;;;;;;;;;5009071;28;20034;-72
2023/06/13 13:27:46;;;;;;;11.90;5.47;;;;;;;;;;5009304;28;20366;-72
2023/06/13 13:30:12;;;;;;;10.10;4.97;;;;;;;;;;5006012;28;20050;-72
2023/06/13 13:32:38;;;;;;;8.35;4.80;;;;;;;;;;5008464;28;20900;-72
2023/06/13 13:35:03;;;;;;;8.18;4.95;;;;;;;;;;5007681;28;20080;-72
2023/06/13 13:37:30;;;;;;;8.35;4.93;;;;;;;;;;5008784;28;20486;-72
2023/06/13 13:39:57;;;;;;;8.95;4.85;;;;;;;;;;4999262;28;20109;-72
2023/06/13 13:42:22;;;;;;;10.52;5.07;;;;;;;;;;5008161;28;20038;-72
2023/06/13 13:44:48;;;;;;;7.50;4.90;;;;;;;;;;5008135;28;20032;-71
2023/06/13 13:47:13;;;;;;;10.43;4.80;;;;;;;;;;5009722;28;20390;-73
2023/06/13 13:49:39;;;;;;;9.05;4.80;;;;;;;;;;5011642;28;20038;-72
2023/06/13 13:52:05;;;;;;;9.70;5.00;;;;;;;;;;5009920;28;20402;-72
2023/06/13 13:54:30;;;;;;;8.45;5.20;;;;;;;;;;5035924;28;20046;-72
2023/06/13 13:56:58;;;;;;;6.90;4.30;;;;;;;;;;4987208;28;20058;-72
2023/06/13 13:59:23;;;;;;;7.50;4.40;;;;;;;;;;5003570;28;20045;-72
2023/06/13 14:01:49;;;;;;;11.35;4.32;;;;;;;;;;5004360;28;20041;-72
2023/06/13 14:04:18;;;;;;;11.20;4.97;;;;;;;;;;5005740;28;20393;-72
2023/06/13 14:06:43;;;;;;;8.18;4.40;;;;;;;;;;5002094;28;20040;-72
2023/06/13 14:09:10;;;;;;;7.55;4.53;;;;;;;;;;5003452;28;20113;-72
2023/06/13 14:11:35;;;;;;;6.30;4.53;;;;;;;;;;5007903;28;20037;-72
2023/06/13 14:14:01;;;;;;;12.75;4.93;;;;;;;;;;5006332;28;20048;-72
2023/06/13 14:16:28;;;;;;;6.82;3.92;;;;;;;;;;5009448;28;20033;-72
2023/06/13 14:18:53;;;;;;;7.75;4.60;;;;;;;;;;5009054;28;20034;-73
2023/06/13 14:21:19;;;;;;;6.30;4.18;;;;;;;;;;5010556;28;20084;-72
2023/06/13 14:23:44;;;;;;;8.73;4.82;;;;;;;;;;5010719;28;20030;-72
2023/06/13 14:26:10;;;;;;;8.52;5.10;;;;;;;;;;5008314;28;20053;-72
2023/06/13 14:28:35;;;;;;;8.65;4.20;;;;;;;;;;5009811;28;20116;-72
2023/06/13 14:31:00;;;;;;;9.90;4.13;;;;;;;;;;5010345;28;20041;-72
2023/06/13 14:33:26;;;;;;;8.35;4.55;;;;;;;;;;5009196;28;20042;-72
2023/06/13 14:35:51;;;;;;;9.07;4.47;;;;;;;;;;5010533;28;20034;-72
2023/06/13 14:38:16;;;;;;;11.20;4.47;;;;;;;;;;5009863;28;20041;-72